Sunday, October 21, 2018, 9:20 PM EDT
Back to Local

KDAW, Skyhaven Airport

Location: Rochester, NH, United States Lat: 43.283
Local Time: 9:20 PM EDT ( 1:20 GMT) Lon: -70.917
Time Zone: US/Eastern Elev: 321 ft

Show me the last for .
Show Decoded

2018-10-21 20:51 METAR KDAW 220051Z AUTO 29007KT 240V310 10SM OVC049 03/M06 A2998 RMK AO2 SLP150
                 T00281061 =
2018-10-21 19:51 METAR KDAW 212351Z AUTO 30008KT 10SM SCT050 03/M07 A2995 RMK AO2 SLP140
                 T00281067 10061 20022 51031 =
2018-10-21 18:51 METAR KDAW 212251Z AUTO 31010G20KT 10SM BKN048 03/M07 A2993 RMK AO2 SLP134
                 T00281067 =
2018-10-21 17:51 METAR KDAW 212151Z AUTO 31013G23KT 10SM SCT048 03/M07 A2989 RMK AO2 PK WND
                 32029/2105 SLP120 T00331067 =
2018-10-21 16:51 METAR KDAW 212051Z AUTO 30018G31KT 10SM OVC046 04/M06 A2985 RMK AO2 PK WND
                 30031/2046 SLP109 T00391061 53021 =
2018-10-21 15:51 METAR KDAW 211951Z AUTO 32014G23KT 10SM OVC045 04/M04 A2983 RMK AO2 PK WND
                 30033/1853 SLP101 T00441044 =
2018-10-21 14:51 METAR KDAW 211851Z AUTO 30020G30KT 10SM OVC045 05/M05 A2980 RMK AO2 PK WND
                 32032/1755 SLP092 T00501050 =
2018-10-21 13:51 METAR KDAW 211751Z AUTO 31020G32KT 10SM SCT044 06/M04 A2979 RMK AO2 PK WND
                 31032/1743 SLP087 T00611044 10072 20056 53009 =
2018-10-21 12:51 METAR KDAW 211651Z AUTO 31023G30KT 10SM SCT044 07/M03 A2978 RMK AO2 PK WND
                 29030/1650 SLP083 T00671033 =
2018-10-21 11:51 METAR KDAW 211551Z AUTO 32020G29KT 10SM CLR 07/M03 A2977 RMK AO2 PK WND
                 31030/1532 SLP080 T00721028 =
2018-10-21 10:51 METAR KDAW 211451Z AUTO 31017G23KT 10SM FEW042 07/M02 A2976 RMK AO2 SLP077
                 T00671017 51025 =
2018-10-21 09:51 METAR KDAW 211351Z AUTO 32012KT 10SM BKN110 06/M01 A2975 RMK AO2 SLP073
                 T00611006 =
2018-10-21 08:51 METAR KDAW 211251Z AUTO 32011G17KT 10SM OVC110 06/M01 A2972 RMK AO2 SLP063
                 T00611011 =
2018-10-21 07:51 METAR KDAW 211151Z AUTO 31007KT 10SM SCT048 BKN070 OVC090 07/M01 A2969 RMK AO2
                 SLP051 T00671006 10067 20050 53029 =
2018-10-21 06:51 METAR KDAW 211051Z AUTO 31007KT 10SM OVC075 07/02 A2964 RMK AO2 SLP036 T00670017
                 =
2018-10-21 05:51 METAR KDAW 210951Z AUTO 00000KT 10SM OVC100 06/03 A2962 RMK AO2 SLP030 T00610028
                 =
2018-10-21 04:51 METAR KDAW 210851Z AUTO 32003KT 10SM OVC100 06/03 A2960 RMK AO2 SLP021 T00610028
                 53013 =
2018-10-21 03:51 METAR KDAW 210751Z AUTO 34003KT 10SM OVC100 06/03 A2957 RMK AO2 SLP011 T00610028
                 =
2018-10-21 02:51 METAR KDAW 210651Z AUTO 32004KT 10SM OVC110 06/03 A2956 RMK AO2 SLP009 T00610028
                 =
2018-10-21 01:51 METAR KDAW 210551Z AUTO 34010KT 10SM OVC100 06/03 A2956 RMK AO2 SLP009 T00560028
                 10100 20044 53001 =
2018-10-21 00:51 METAR KDAW 210451Z AUTO 31008KT 10SM CLR 05/02 A2956 RMK AO2 SLP006 T00500017
                 401720044 =
2018-10-20 23:51 METAR KDAW 210351Z AUTO 30004KT 10SM CLR 07/02 A2956 RMK AO2 SLP008 T00670022 =
2018-10-20 22:51 METAR KDAW 210251Z AUTO 29005KT 10SM CLR 08/02 A2956 RMK AO2 SLP008 T00830022
                 53008 =
2018-10-20 21:51 METAR KDAW 210151Z AUTO 00000KT 10SM CLR 06/04 A2955 RMK AO2 SLP005 T00610039 =

Support USWX by starting your Amazon purchase here.